createdAt,value
2023-01-07T00:01:14.169Z,7.52
2023-01-07T00:03:41.858Z,7.54
2023-01-07T00:06:12.654Z,7.54
2023-01-07T00:08:41.615Z,7.51
2023-01-07T00:11:10.900Z,7.49
2023-01-07T00:13:37.380Z,7.49
2023-01-07T00:16:07.404Z,7.49
2023-01-07T00:18:35.236Z,7.48
2023-01-07T00:21:04.465Z,7.47
2023-01-07T00:23:32.179Z,7.45
2023-01-07T00:26:06.654Z,7.44
2023-01-07T00:28:34.748Z,7.43
2023-01-07T00:31:07.457Z,7.42
2023-01-07T00:33:34.006Z,7.42
2023-01-07T00:36:06.582Z,7.43
2023-01-07T00:38:33.087Z,7.42
2023-01-07T00:40:59.539Z,7.38
2023-01-07T00:43:25.984Z,7.38
2023-01-07T00:45:52.642Z,7.38
2023-01-07T00:48:19.537Z,7.41
2023-01-07T00:50:48.575Z,7.43
2023-01-07T00:53:15.754Z,7.34
2023-01-07T00:55:42.228Z,7.32
2023-01-07T00:58:14.179Z,7.36
2023-01-07T01:00:40.530Z,7.35
2023-01-07T01:03:07.747Z,7.33
2023-01-07T01:05:34.104Z,7.29
2023-01-07T01:08:00.461Z,7.28
2023-01-07T01:10:26.829Z,7.27
2023-01-07T01:12:53.142Z,7.27
2023-01-07T01:15:20.045Z,7.28
2023-01-07T01:17:46.422Z,7.26
2023-01-07T01:20:14.821Z,7.25
2023-01-07T01:22:42.047Z,7.26
2023-01-07T01:25:09.513Z,7.26
2023-01-07T01:27:36.087Z,7.27
2023-01-07T01:30:03.093Z,7.28
2023-01-07T01:32:29.645Z,7.26
2023-01-07T01:34:56.099Z,7.25
2023-01-07T01:37:22.485Z,7.21
2023-01-07T01:39:48.896Z,7.16
2023-01-07T01:42:18.788Z,7.10
2023-01-07T01:44:59.575Z,7.11
2023-01-07T01:47:43.702Z,7.12
2023-01-07T01:50:24.903Z,7.16
2023-01-07T01:53:02.383Z,7.18
2023-01-07T01:55:45.858Z,7.20
2023-01-07T01:58:20.491Z,7.21
2023-01-07T02:00:47.386Z,7.20
2023-01-07T02:03:18.843Z,7.16
2023-01-07T02:05:46.182Z,7.10
2023-01-07T02:08:12.947Z,7.07
2023-01-07T02:10:39.704Z,7.03
2023-01-07T02:13:42.994Z,7.04
2023-01-07T02:16:23.601Z,7.07
2023-01-07T02:18:59.224Z,7.09
2023-01-07T02:21:51.511Z,7.09
2023-01-07T02:24:47.617Z,7.08
2023-01-07T02:27:32.398Z,7.09
2023-01-07T02:30:17.371Z,7.11
2023-01-07T02:32:46.745Z,7.09
2023-01-07T02:35:27.811Z,7.10
2023-01-07T02:38:04.362Z,7.10
2023-01-07T02:41:05.841Z,7.06
2023-01-07T02:44:02.709Z,7.10
2023-01-07T02:46:40.235Z,7.08
2023-01-07T02:49:11.380Z,7.00
2023-01-07T02:51:40.387Z,6.96
2023-01-07T02:54:12.171Z,6.97
2023-01-07T02:57:06.901Z,6.97
2023-01-07T02:59:49.344Z,6.96
2023-01-07T03:02:23.569Z,7.01
2023-01-07T03:05:07.130Z,7.04
2023-01-07T03:07:55.333Z,7.02
2023-01-07T03:10:25.975Z,6.98
2023-01-07T03:13:03.517Z,6.92
2023-01-07T03:15:40.566Z,6.94
2023-01-07T03:18:22.181Z,6.91
2023-01-07T03:20:53.266Z,6.91
2023-01-07T03:23:22.707Z,6.90
2023-01-07T03:25:52.025Z,6.88
2023-01-07T03:28:24.565Z,6.92
2023-01-07T03:30:54.508Z,6.93
2023-01-07T03:33:36.098Z,6.91
2023-01-07T03:36:06.089Z,6.88
2023-01-07T03:38:34.761Z,6.87
2023-01-07T03:41:01.694Z,6.85
2023-01-07T03:43:28.175Z,6.83
2023-01-07T03:45:57.798Z,6.85
2023-01-07T03:48:24.178Z,6.85
2023-01-07T03:50:50.520Z,6.89
2023-01-07T03:53:16.839Z,6.91
2023-01-07T03:55:43.334Z,6.93
2023-01-07T03:58:09.940Z,6.96
2023-01-07T04:00:36.279Z,6.94
2023-01-07T04:03:02.797Z,6.97
2023-01-07T04:05:29.308Z,6.94
2023-01-07T04:07:55.649Z,6.94
2023-01-07T04:10:22.071Z,6.93
2023-01-07T04:12:48.351Z,6.94
2023-01-07T04:15:14.942Z,6.96
2023-01-07T04:17:41.382Z,6.96
2023-01-07T04:20:08.267Z,6.98
2023-01-07T04:22:34.678Z,6.99
2023-01-07T04:25:00.995Z,6.96
2023-01-07T04:27:27.415Z,6.96
2023-01-07T04:29:53.768Z,6.98
2023-01-07T04:32:20.071Z,6.97
2023-01-07T04:34:46.548Z,6.99
2023-01-07T04:37:12.855Z,7.00
2023-01-07T04:39:39.211Z,6.95
2023-01-07T04:42:05.807Z,6.94
2023-01-07T04:44:32.131Z,6.91
2023-01-07T04:46:58.504Z,6.90
2023-01-07T04:49:24.910Z,6.88
2023-01-07T04:51:51.242Z,6.88
2023-01-07T04:54:17.910Z,6.88
2023-01-07T04:56:44.285Z,6.88
2023-01-07T04:59:10.771Z,6.87
2023-01-07T05:01:37.236Z,6.89
2023-01-07T05:04:03.926Z,6.84
2023-01-07T05:06:30.389Z,6.83
2023-01-07T05:08:56.886Z,6.85
2023-01-07T05:11:23.365Z,6.84
2023-01-07T05:13:49.911Z,6.84
2023-01-07T05:16:17.466Z,6.84
2023-01-07T05:18:44.312Z,6.87
2023-01-07T05:21:11.007Z,6.87
2023-01-07T05:23:37.664Z,6.87
2023-01-07T05:26:04.263Z,6.88
2023-01-07T05:28:30.625Z,6.85
2023-01-07T05:30:57.242Z,6.84
2023-01-07T05:33:23.831Z,6.84
2023-01-07T05:35:50.263Z,6.83
2023-01-07T05:38:16.958Z,6.83
2023-01-07T05:40:43.600Z,6.84
2023-01-07T05:43:09.953Z,6.85
2023-01-07T05:45:36.410Z,6.84
2023-01-07T05:48:02.885Z,6.83
2023-01-07T05:50:29.285Z,6.85
2023-01-07T05:52:55.720Z,6.83
2023-01-07T05:55:22.058Z,6.83
2023-01-07T05:57:48.396Z,6.85
2023-01-07T06:00:15.147Z,6.87
2023-01-07T06:02:41.494Z,6.86
2023-01-07T06:05:08.619Z,6.87
2023-01-07T06:07:35.697Z,6.82
2023-01-07T06:10:03.186Z,6.83
2023-01-07T06:12:30.178Z,6.85
2023-01-07T06:14:56.582Z,6.86
2023-01-07T06:17:23.028Z,6.89
2023-01-07T06:19:49.439Z,6.89
2023-01-07T06:22:15.863Z,6.90
2023-01-07T06:24:42.212Z,6.85
2023-01-07T06:27:10.409Z,6.91
2023-01-07T06:29:36.755Z,6.92
2023-01-07T06:32:03.282Z,6.94
2023-01-07T06:34:29.659Z,6.91
2023-01-07T06:36:56.074Z,6.90
2023-01-07T06:39:22.575Z,6.86
2023-01-07T06:41:48.950Z,6.89
2023-01-07T06:44:15.556Z,6.92
2023-01-07T06:46:42.245Z,6.96
2023-01-07T06:49:08.907Z,6.92
2023-01-07T06:51:35.389Z,6.88
2023-01-07T06:54:01.829Z,6.90
2023-01-07T06:56:28.184Z,6.90
2023-01-07T06:58:54.827Z,6.91
2023-01-07T07:01:21.607Z,6.94
2023-01-07T07:03:48.091Z,6.90
2023-01-07T07:06:14.580Z,6.87
2023-01-07T07:08:40.941Z,6.84
2023-01-07T07:11:07.281Z,6.83
2023-01-07T07:13:33.656Z,6.86
2023-01-07T07:16:00.068Z,6.87
2023-01-07T07:18:26.442Z,6.85
2023-01-07T07:20:53.115Z,6.86
2023-01-07T07:23:19.464Z,6.87
2023-01-07T07:25:45.796Z,6.88
2023-01-07T07:28:12.462Z,6.92
2023-01-07T07:30:46.735Z,6.91
2023-01-07T07:33:14.426Z,6.96
2023-01-07T07:35:40.771Z,7.01
2023-01-07T07:38:07.204Z,7.03
2023-01-07T07:40:33.687Z,7.03
2023-01-07T07:43:11.083Z,7.05
2023-01-07T07:45:39.956Z,7.07
2023-01-07T07:48:07.380Z,7.06
2023-01-07T07:50:34.864Z,7.04
2023-01-07T07:53:01.304Z,7.07
2023-01-07T07:55:27.961Z,7.07
2023-01-07T07:57:55.152Z,7.09
2023-01-07T08:00:21.864Z,7.10
2023-01-07T08:02:48.344Z,7.04
2023-01-07T08:05:14.732Z,7.01
2023-01-07T08:07:42.382Z,7.04
2023-01-07T08:10:09.243Z,7.06
2023-01-07T08:12:39.065Z,7.07
2023-01-07T08:15:07.437Z,7.09
2023-01-07T08:17:34.076Z,7.14
2023-01-07T08:20:00.436Z,7.15
2023-01-07T08:22:26.874Z,7.24
2023-01-07T08:24:53.514Z,7.30
2023-01-07T08:27:19.913Z,7.38
2023-01-07T08:29:46.340Z,7.44
2023-01-07T08:32:13.141Z,7.44
2023-01-07T08:34:39.784Z,7.51
2023-01-07T08:37:06.129Z,7.56
2023-01-07T08:39:32.790Z,7.57
2023-01-07T08:41:59.256Z,7.60
2023-01-07T08:44:25.588Z,7.64
2023-01-07T08:46:53.122Z,7.71
2023-01-07T08:49:19.501Z,7.75
2023-01-07T08:51:45.975Z,7.78
2023-01-07T08:54:12.304Z,7.84
2023-01-07T08:56:38.895Z,7.91
2023-01-07T08:59:05.470Z,8.01
2023-01-07T09:01:31.958Z,8.03
2023-01-07T09:03:58.487Z,8.06
2023-01-07T09:06:24.872Z,8.15
2023-01-07T09:08:51.525Z,8.21
2023-01-07T09:11:17.830Z,8.27
2023-01-07T09:13:44.270Z,8.24
2023-01-07T09:16:10.680Z,8.35
2023-01-07T09:18:37.014Z,8.37
2023-01-07T09:21:03.566Z,8.50
2023-01-07T09:23:30.110Z,8.56
2023-01-07T09:25:56.622Z,8.67
2023-01-07T09:28:23.085Z,8.69
2023-01-07T09:30:49.504Z,8.77
2023-01-07T09:33:15.953Z,8.91
2023-01-07T09:35:42.364Z,8.81
2023-01-07T09:38:08.784Z,8.87
2023-01-07T09:40:41.241Z,8.93
2023-01-07T09:43:59.321Z,8.84
2023-01-07T09:46:24.422Z,8.86
2023-01-07T09:49:03.674Z,8.93
2023-01-07T09:51:38.805Z,8.85
2023-01-07T09:54:18.474Z,8.61
2023-01-07T09:56:45.916Z,8.88
2023-01-07T09:59:19.618Z,8.95
2023-01-07T10:01:54.691Z,8.95
2023-01-07T10:04:43.330Z,8.95
2023-01-07T10:07:29.196Z,8.87
2023-01-07T10:10:23.065Z,8.93
2023-01-07T10:12:55.511Z,9.08
2023-01-07T10:15:30.876Z,9.28
2023-01-07T10:18:10.596Z,9.11
2023-01-07T10:20:55.520Z,9.25
2023-01-07T10:23:32.539Z,9.30
2023-01-07T10:26:01.335Z,9.18
2023-01-07T10:28:57.028Z,9.30
2023-01-07T10:31:27.614Z,9.63
2023-01-07T10:33:56.219Z,9.82
2023-01-07T10:36:30.832Z,10.49
2023-01-07T10:39:11.966Z,10.44
2023-01-07T10:41:48.681Z,10.25
2023-01-07T10:44:39.722Z,10.66
2023-01-07T10:47:24.629Z,11.16
2023-01-07T10:50:22.166Z,10.74
2023-01-07T10:53:26.551Z,10.55
2023-01-07T10:56:20.442Z,10.57
2023-01-07T10:58:49.271Z,10.93
2023-01-07T11:01:31.489Z,10.97
2023-01-07T11:03:58.988Z,10.70
2023-01-07T11:06:48.261Z,10.53
2023-01-07T11:09:30.434Z,11.01
2023-01-07T11:12:01.346Z,11.24
2023-01-07T11:14:30.906Z,11.07
2023-01-07T11:17:23.993Z,11.05
2023-01-07T11:19:50.908Z,11.27
2023-01-07T11:22:26.271Z,11.53
2023-01-07T11:24:58.315Z,11.79
2023-01-07T11:27:30.069Z,11.68
2023-01-07T11:30:19.660Z,11.76
2023-01-07T11:32:55.931Z,11.48
2023-01-07T11:35:25.243Z,11.32
2023-01-07T11:37:51.790Z,11.24
2023-01-07T11:40:27.711Z,11.14
2023-01-07T11:42:58.046Z,10.83
2023-01-07T11:45:31.219Z,10.73
2023-01-07T11:48:20.284Z,11.10
2023-01-07T11:51:02.107Z,10.64
2023-01-07T11:53:41.870Z,10.77
2023-01-07T11:56:22.981Z,11.14
2023-01-07T11:59:14.496Z,11.06
2023-01-07T12:01:48.142Z,11.22
2023-01-07T12:04:26.793Z,11.28
2023-01-07T12:06:57.602Z,11.13
2023-01-07T12:09:37.601Z,11.31
2023-01-07T12:12:11.143Z,11.02
2023-01-07T12:14:38.840Z,11.29
2023-01-07T12:17:08.195Z,11.57
2023-01-07T12:19:56.067Z,11.16
2023-01-07T12:22:28.632Z,11.06
2023-01-07T12:25:18.147Z,11.32
2023-01-07T12:28:13.700Z,11.13
2023-01-07T12:30:41.447Z,11.50
2023-01-07T12:33:31.488Z,11.77
2023-01-07T12:36:03.117Z,11.44
2023-01-07T12:38:50.826Z,11.71
2023-01-07T12:41:26.306Z,11.98
2023-01-07T12:44:05.694Z,11.82
2023-01-07T12:46:50.231Z,11.27
2023-01-07T12:49:24.676Z,11.42
2023-01-07T12:52:00.510Z,10.98
2023-01-07T12:54:45.022Z,10.92
2023-01-07T12:57:21.660Z,11.27
2023-01-07T12:59:52.575Z,11.53
2023-01-07T13:02:42.111Z,11.06
2023-01-07T13:05:27.619Z,10.81
2023-01-07T13:07:59.057Z,10.99
2023-01-07T13:10:30.827Z,11.09
2023-01-07T13:13:02.498Z,10.75
2023-01-07T13:15:34.683Z,10.97
2023-01-07T13:18:10.176Z,10.88
2023-01-07T13:20:52.069Z,10.66
2023-01-07T13:24:11.460Z,10.68
2023-01-07T13:26:55.753Z,10.45
2023-01-07T13:29:53.504Z,10.79
2023-01-07T13:32:35.259Z,10.49
2023-01-07T13:35:12.313Z,10.65
2023-01-07T13:38:05.196Z,10.83
2023-01-07T13:41:00.702Z,11.10
2023-01-07T13:43:33.558Z,10.70
2023-01-07T13:46:14.014Z,10.73
2023-01-07T13:48:46.740Z,10.61
2023-01-07T13:51:13.570Z,10.34
2023-01-07T13:53:39.875Z,10.53
2023-01-07T13:56:18.513Z,10.22
2023-01-07T13:58:47.599Z,10.39
2023-01-07T14:01:23.750Z,10.29
2023-01-07T14:03:53.655Z,10.35
2023-01-07T14:06:19.956Z,10.36
2023-01-07T14:09:04.970Z,10.46
2023-01-07T14:11:31.248Z,10.39
2023-01-07T14:14:26.632Z,10.40
2023-01-07T14:17:07.386Z,10.25
2023-01-07T14:19:47.968Z,10.07
2023-01-07T14:22:27.258Z,10.00
2023-01-07T14:25:30.761Z,10.08
2023-01-07T14:28:31.439Z,10.12
2023-01-07T14:30:58.375Z,10.00
2023-01-07T14:33:26.272Z,10.10
2023-01-07T14:35:57.061Z,10.02
2023-01-07T14:38:29.445Z,10.02
2023-01-07T14:41:10.754Z,9.99
2023-01-07T14:43:43.109Z,9.95
2023-01-07T14:46:30.608Z,9.90
2023-01-07T14:49:00.037Z,9.74
2023-01-07T14:51:56.224Z,9.70
2023-01-07T14:54:41.827Z,9.63
2023-01-07T14:57:19.663Z,9.62
2023-01-07T15:00:04.754Z,9.53
2023-01-07T15:02:58.400Z,9.41
2023-01-07T15:06:01.707Z,9.29
2023-01-07T15:08:42.136Z,9.22
2023-01-07T15:11:16.125Z,9.13
2023-01-07T15:13:51.141Z,9.10
2023-01-07T15:16:21.563Z,9.10
2023-01-07T15:18:51.022Z,9.05
2023-01-07T15:21:25.711Z,9.01
2023-01-07T15:24:10.087Z,9.00
2023-01-07T15:27:05.867Z,8.94
2023-01-07T15:29:43.548Z,8.83
2023-01-07T15:32:40.278Z,8.69
2023-01-07T15:35:17.540Z,8.56
2023-01-07T15:37:48.761Z,8.41
2023-01-07T15:40:20.514Z,8.25
2023-01-07T15:42:49.835Z,8.11
2023-01-07T15:45:19.627Z,7.99
2023-01-07T15:47:46.235Z,7.89
2023-01-07T15:50:33.038Z,7.76
2023-01-07T15:53:16.796Z,7.66
2023-01-07T15:55:50.936Z,7.56
2023-01-07T15:58:24.534Z,7.46
2023-01-07T16:00:57.084Z,7.34
2023-01-07T16:03:24.567Z,7.28
2023-01-07T16:05:51.130Z,7.21
2023-01-07T16:08:20.870Z,7.14
2023-01-07T16:11:08.778Z,7.04
2023-01-07T16:13:36.854Z,6.94
2023-01-07T16:16:04.216Z,6.88
2023-01-07T16:18:32.375Z,6.82
2023-01-07T16:21:08.372Z,6.79
2023-01-07T16:23:38.137Z,6.77
2023-01-07T16:26:21.244Z,6.76
2023-01-07T16:28:50.936Z,6.70
2023-01-07T16:31:20.934Z,6.65
2023-01-07T16:33:50.040Z,6.57
2023-01-07T16:36:20.891Z,6.60
2023-01-07T16:38:48.325Z,6.56
2023-01-07T16:41:25.763Z,6.77
2023-01-07T16:43:57.670Z,6.71
2023-01-07T16:46:28.010Z,6.69
2023-01-07T16:49:13.419Z,6.68
2023-01-07T16:51:44.372Z,6.62
2023-01-07T16:54:21.028Z,6.56
2023-01-07T16:56:49.742Z,6.46
2023-01-07T16:59:16.168Z,6.43
2023-01-07T17:01:42.701Z,6.37
2023-01-07T17:04:17.726Z,6.35
2023-01-07T17:06:44.557Z,6.25
2023-01-07T17:09:25.304Z,6.13
2023-01-07T17:11:53.508Z,6.02
2023-01-07T17:14:35.015Z,5.91
2023-01-07T17:17:08.999Z,5.84
2023-01-07T17:19:47.751Z,5.76
2023-01-07T17:22:33.847Z,5.73
2023-01-07T17:25:15.806Z,5.70
2023-01-07T17:27:51.229Z,5.66
2023-01-07T17:30:20.741Z,5.64
2023-01-07T17:32:49.178Z,5.52
2023-01-07T17:35:17.644Z,5.49
2023-01-07T17:37:43.958Z,5.39
2023-01-07T17:40:11.108Z,5.26
2023-01-07T17:42:37.568Z,5.19
2023-01-07T17:45:04.294Z,5.10
2023-01-07T17:47:30.597Z,5.03
2023-01-07T17:49:57.053Z,5.01
2023-01-07T17:52:23.786Z,4.95
2023-01-07T17:54:50.114Z,4.89
2023-01-07T17:57:16.540Z,4.85
2023-01-07T17:59:42.951Z,4.80
2023-01-07T18:02:17.283Z,4.79
2023-01-07T18:04:44.121Z,4.71
2023-01-07T18:07:19.499Z,4.66
2023-01-07T18:09:45.976Z,4.59
2023-01-07T18:12:17.860Z,4.56
2023-01-07T18:14:44.191Z,4.55
2023-01-07T18:17:11.171Z,4.51
2023-01-07T18:19:37.499Z,4.47
2023-01-07T18:22:04.107Z,4.44
2023-01-07T18:24:31.513Z,4.38
2023-01-07T18:26:57.857Z,4.25
2023-01-07T18:29:25.137Z,4.14
2023-01-07T18:31:51.720Z,4.11
2023-01-07T18:34:18.350Z,4.05
2023-01-07T18:36:44.851Z,3.94
2023-01-07T18:39:19.225Z,3.89
2023-01-07T18:41:47.007Z,3.89
2023-01-07T18:44:14.177Z,3.89
2023-01-07T18:46:40.504Z,3.82
2023-01-07T18:49:07.250Z,3.75
2023-01-07T18:51:33.815Z,3.73
2023-01-07T18:54:00.160Z,3.70
2023-01-07T18:56:26.510Z,3.77
2023-01-07T18:58:53.824Z,3.65
2023-01-07T19:01:20.568Z,3.59
2023-01-07T19:03:47.875Z,3.51
2023-01-07T19:06:15.596Z,3.48
2023-01-07T19:08:42.127Z,3.47
2023-01-07T19:11:11.284Z,3.41
2023-01-07T19:13:37.777Z,3.40
2023-01-07T19:16:09.440Z,3.37
2023-01-07T19:18:36.011Z,3.30
2023-01-07T19:21:03.403Z,3.26
2023-01-07T19:23:31.158Z,3.32
2023-01-07T19:26:03.134Z,3.27
2023-01-07T19:28:29.648Z,3.21
2023-01-07T19:30:56.285Z,3.18
2023-01-07T19:33:22.786Z,3.17
2023-01-07T19:35:49.130Z,3.17
2023-01-07T19:38:15.666Z,3.13
2023-01-07T19:40:45.823Z,3.12
2023-01-07T19:43:12.884Z,3.08
2023-01-07T19:45:40.260Z,3.08
2023-01-07T19:48:07.386Z,3.03
2023-01-07T19:50:33.986Z,2.96
2023-01-07T19:53:00.333Z,2.96
2023-01-07T19:55:26.763Z,3.04
2023-01-07T19:57:53.122Z,3.00
2023-01-07T20:00:19.483Z,2.94
2023-01-07T20:02:45.903Z,2.96
2023-01-07T20:05:12.216Z,2.92
2023-01-07T20:07:38.737Z,2.85
2023-01-07T20:10:05.420Z,2.81
2023-01-07T20:12:31.913Z,2.73
2023-01-07T20:14:58.335Z,2.68
2023-01-07T20:17:24.627Z,2.64
2023-01-07T20:19:51.101Z,2.64
2023-01-07T20:22:17.925Z,2.64
2023-01-07T20:24:44.368Z,2.65
2023-01-07T20:27:10.835Z,2.63
2023-01-07T20:29:37.295Z,2.59
2023-01-07T20:32:04.078Z,2.59
2023-01-07T20:34:30.493Z,2.58
2023-01-07T20:36:57.031Z,2.57
2023-01-07T20:39:23.340Z,2.55
2023-01-07T20:41:49.847Z,2.56
2023-01-07T20:44:17.171Z,2.54
2023-01-07T20:46:43.864Z,2.49
2023-01-07T20:49:10.405Z,2.47
2023-01-07T20:51:36.904Z,2.41
2023-01-07T20:54:03.381Z,2.40
2023-01-07T20:56:29.757Z,2.43
2023-01-07T20:58:56.523Z,2.38
2023-01-07T21:01:22.980Z,2.40
2023-01-07T21:03:49.877Z,2.41
2023-01-07T21:06:18.644Z,2.38
2023-01-07T21:08:46.889Z,2.34
2023-01-07T21:11:18.625Z,2.31
2023-01-07T21:13:46.150Z,2.23
2023-01-07T21:16:13.540Z,2.20
2023-01-07T21:18:40.014Z,2.24
2023-01-07T21:21:14.915Z,2.27
2023-01-07T21:23:41.767Z,2.24
2023-01-07T21:26:09.275Z,2.19
2023-01-07T21:28:36.073Z,2.21
2023-01-07T21:31:07.049Z,2.16
2023-01-07T21:33:33.395Z,2.10
2023-01-07T21:35:59.836Z,2.07
2023-01-07T21:38:26.353Z,2.09
2023-01-07T21:40:52.746Z,2.02
2023-01-07T21:43:19.034Z,2.06
2023-01-07T21:45:45.375Z,2.04
2023-01-07T21:48:11.940Z,1.97
2023-01-07T21:50:38.452Z,1.88
2023-01-07T21:53:05.111Z,1.81
2023-01-07T21:55:31.705Z,1.77
2023-01-07T21:57:58.283Z,1.75
2023-01-07T22:00:24.674Z,1.75
2023-01-07T22:02:51.063Z,1.76
2023-01-07T22:05:17.529Z,1.74
2023-01-07T22:07:43.979Z,1.71
2023-01-07T22:10:10.601Z,1.68
2023-01-07T22:12:36.919Z,1.65
2023-01-07T22:15:03.583Z,1.67
2023-01-07T22:17:29.947Z,1.60
2023-01-07T22:19:56.450Z,1.54
2023-01-07T22:22:22.929Z,1.52
2023-01-07T22:24:49.251Z,1.46
2023-01-07T22:27:15.553Z,1.40
2023-01-07T22:29:42.292Z,1.39
2023-01-07T22:32:08.610Z,1.34
2023-01-07T22:34:34.943Z,1.28
2023-01-07T22:37:15.036Z,1.28
2023-01-07T22:39:45.996Z,1.24
2023-01-07T22:42:18.530Z,1.21
2023-01-07T22:44:53.922Z,1.22
2023-01-07T22:47:28.486Z,1.15
2023-01-07T22:49:56.074Z,1.10
2023-01-07T22:52:22.674Z,1.05
2023-01-07T22:54:49.126Z,1.07
2023-01-07T22:57:15.805Z,1.07
2023-01-07T22:59:42.440Z,1.05
2023-01-07T23:02:08.746Z,0.98
2023-01-07T23:04:35.387Z,1.04
2023-01-07T23:07:02.019Z,1.00
2023-01-07T23:09:28.473Z,0.97
2023-01-07T23:11:54.849Z,0.98
2023-01-07T23:14:22.813Z,0.96
2023-01-07T23:16:50.438Z,0.96
2023-01-07T23:19:17.798Z,0.96
2023-01-07T23:21:45.854Z,0.89
2023-01-07T23:24:13.544Z,0.90
2023-01-07T23:26:41.089Z,0.88
2023-01-07T23:29:08.188Z,0.96
2023-01-07T23:31:35.785Z,0.84
2023-01-07T23:34:02.714Z,0.83
2023-01-07T23:36:29.786Z,0.77
2023-01-07T23:38:56.119Z,0.77
2023-01-07T23:41:23.146Z,0.84
2023-01-07T23:43:50.694Z,0.73
2023-01-07T23:46:17.130Z,0.73
2023-01-07T23:48:43.480Z,0.74
2023-01-07T23:51:27.906Z,0.73
2023-01-07T23:53:54.364Z,0.77
2023-01-07T23:56:21.740Z,0.63
2023-01-07T23:58:49.016Z,0.56
